createdAt,value
2022-10-19T00:01:38.139Z,18.23
2022-10-19T00:04:41.620Z,19.50
2022-10-19T00:07:45.014Z,18.02
2022-10-19T00:10:48.488Z,19.60
2022-10-19T00:13:52.892Z,18.90
2022-10-19T00:16:58.152Z,22.57
2022-10-19T00:20:01.979Z,21.20
2022-10-19T00:23:05.310Z,18.63
2022-10-19T00:26:08.966Z,26.00
2022-10-19T00:29:14.266Z,18.63
2022-10-19T00:32:17.623Z,22.90
2022-10-19T00:35:21.014Z,21.90
2022-10-19T00:38:24.439Z,20.27
2022-10-19T00:41:30.543Z,19.42
2022-10-19T00:44:58.546Z,19.25
2022-10-19T00:48:01.894Z,17.83
2022-10-19T00:51:05.297Z,17.47
2022-10-19T00:54:09.489Z,19.80
2022-10-19T00:57:13.609Z,17.73
2022-10-19T01:00:17.032Z,17.02
2022-10-19T01:03:21.266Z,19.47
2022-10-19T01:06:25.236Z,18.10
2022-10-19T01:09:29.307Z,19.33
2022-10-19T01:13:09.802Z,18.25
2022-10-19T01:16:20.327Z,17.33
2022-10-19T01:19:46.467Z,17.67
2022-10-19T01:23:19.212Z,17.60
2022-10-19T01:26:28.600Z,15.75
2022-10-19T01:29:43.401Z,15.63
2022-10-19T01:33:03.676Z,15.70
2022-10-19T01:36:26.276Z,16.73
2022-10-19T01:40:01.547Z,16.67
2022-10-19T01:43:33.893Z,17.30
2022-10-19T01:46:47.172Z,16.42
2022-10-19T01:49:58.829Z,16.38
2022-10-19T01:53:05.138Z,18.30
2022-10-19T01:56:10.453Z,16.97
2022-10-19T01:59:16.442Z,17.65
2022-10-19T02:02:21.919Z,17.38
2022-10-19T02:05:30.812Z,17.58
2022-10-19T02:09:00.196Z,17.47
2022-10-19T02:12:08.645Z,16.77
2022-10-19T02:15:15.062Z,17.13
2022-10-19T02:18:21.999Z,16.90
2022-10-19T02:21:26.263Z,17.10
2022-10-19T02:24:29.631Z,17.23
2022-10-19T02:27:33.400Z,16.50
2022-10-19T02:30:38.972Z,16.33
2022-10-19T02:33:42.334Z,16.33
2022-10-19T02:36:45.910Z,15.93
2022-10-19T02:39:49.249Z,17.17
2022-10-19T02:42:58.396Z,14.50
2022-10-19T02:46:06.294Z,16.42
2022-10-19T02:49:12.002Z,16.05
2022-10-19T02:52:15.662Z,16.17
2022-10-19T02:55:19.171Z,16.67
2022-10-19T02:58:22.490Z,16.00
2022-10-19T03:01:25.948Z,16.42
2022-10-19T03:04:29.410Z,15.75
2022-10-19T03:07:33.137Z,15.23
2022-10-19T03:10:36.782Z,14.47
2022-10-19T03:13:41.266Z,15.20
2022-10-19T03:16:44.571Z,15.32
2022-10-19T03:19:47.831Z,17.63
2022-10-19T03:25:59.831Z,17.67
2022-10-19T03:29:03.383Z,16.63
2022-10-19T03:32:06.908Z,16.52
2022-10-19T03:35:10.305Z,17.42
2022-10-19T03:38:13.988Z,16.88
2022-10-19T03:41:21.423Z,15.47
2022-10-19T03:44:24.794Z,16.43
2022-10-19T03:47:28.197Z,16.10
2022-10-19T03:50:34.146Z,14.60
2022-10-19T03:53:38.251Z,14.27
2022-10-19T03:56:42.275Z,15.20
2022-10-19T03:59:45.651Z,15.40
2022-10-19T04:02:48.986Z,15.07
2022-10-19T04:05:52.624Z,14.20
2022-10-19T04:08:56.350Z,15.00
2022-10-19T04:11:59.769Z,14.40
2022-10-19T04:15:03.290Z,14.20
2022-10-19T04:18:07.153Z,15.38
2022-10-19T04:21:26.946Z,15.50
2022-10-19T04:24:30.276Z,14.63
2022-10-19T04:27:33.941Z,16.03
2022-10-19T04:30:37.559Z,15.57
2022-10-19T04:33:41.648Z,17.27
2022-10-19T04:36:45.209Z,17.67
2022-10-19T04:39:48.693Z,17.70
2022-10-19T04:42:51.920Z,17.80
2022-10-19T04:45:55.233Z,18.23
2022-10-19T04:48:59.868Z,17.60
2022-10-19T04:52:03.395Z,17.52
2022-10-19T04:55:06.958Z,17.65
2022-10-19T04:58:10.287Z,17.57
2022-10-19T05:01:15.280Z,16.80
2022-10-19T05:04:18.752Z,18.30
2022-10-19T05:07:22.058Z,17.98
2022-10-19T05:10:25.979Z,17.90
2022-10-19T05:13:29.327Z,18.50
2022-10-19T05:16:33.231Z,17.63
2022-10-19T05:19:36.887Z,18.13
2022-10-19T05:22:40.567Z,17.77
2022-10-19T05:25:43.935Z,19.90
2022-10-19T05:28:56.706Z,20.67
2022-10-19T05:32:00.389Z,19.47
2022-10-19T05:35:03.878Z,21.42
2022-10-19T05:38:07.263Z,21.90
2022-10-19T05:41:10.930Z,20.85
2022-10-19T05:44:19.769Z,20.73
2022-10-19T05:47:26.193Z,20.30
2022-10-19T05:50:32.384Z,19.48
2022-10-19T05:56:41.927Z,20.52
2022-10-19T05:59:45.336Z,20.67
2022-10-19T06:02:48.754Z,19.03
2022-10-19T06:05:53.231Z,19.85
2022-10-19T06:08:59.077Z,20.05
2022-10-19T06:12:03.080Z,19.80
2022-10-19T06:15:06.739Z,21.83
2022-10-19T06:18:12.532Z,20.53
2022-10-19T06:21:19.638Z,20.67
2022-10-19T06:24:22.926Z,20.33
2022-10-19T06:27:26.334Z,20.55
2022-10-19T06:30:29.822Z,20.50
2022-10-19T06:33:33.372Z,21.27
2022-10-19T06:36:36.829Z,21.90
2022-10-19T06:39:40.177Z,22.58
2022-10-19T06:42:43.556Z,21.48
2022-10-19T06:45:46.925Z,21.73
2022-10-19T06:48:55.302Z,22.50
2022-10-19T06:51:58.975Z,22.40
2022-10-19T06:55:02.720Z,23.55
2022-10-19T06:58:05.946Z,21.23
2022-10-19T07:01:11.895Z,20.80
2022-10-19T07:04:15.213Z,23.70
2022-10-19T07:07:18.630Z,23.27
2022-10-19T07:10:26.079Z,22.63
2022-10-19T07:13:32.013Z,22.15
2022-10-19T07:16:35.440Z,22.53
2022-10-19T07:19:39.080Z,22.10
2022-10-19T07:22:42.415Z,21.73
2022-10-19T07:25:45.674Z,21.80
2022-10-19T07:28:49.771Z,20.02
2022-10-19T07:31:53.140Z,21.67
2022-10-19T07:34:56.483Z,21.43
2022-10-19T07:37:59.744Z,20.08
2022-10-19T07:41:06.058Z,22.65
2022-10-19T07:44:10.958Z,22.70
2022-10-19T07:47:16.787Z,19.93
2022-10-19T07:50:23.329Z,22.40
2022-10-19T07:53:26.791Z,22.45
2022-10-19T07:56:31.451Z,19.60
2022-10-19T07:59:35.505Z,19.48
2022-10-19T08:02:54.760Z,20.10
2022-10-19T08:06:03.890Z,18.90
2022-10-19T08:09:07.426Z,19.73
2022-10-19T08:12:14.795Z,19.13
2022-10-19T08:15:19.004Z,19.52
2022-10-19T08:18:23.165Z,19.17
2022-10-19T08:21:27.807Z,18.90
2022-10-19T08:24:31.211Z,19.85
2022-10-19T08:30:44.778Z,19.73
2022-10-19T08:33:50.765Z,20.30
2022-10-19T08:36:54.065Z,20.57
2022-10-19T08:39:57.349Z,21.25
2022-10-19T08:43:11.707Z,20.13
2022-10-19T08:46:41.276Z,19.77
2022-10-19T08:49:46.512Z,20.57
2022-10-19T08:53:18.369Z,19.20
2022-10-19T08:56:49.233Z,18.45
2022-10-19T09:00:25.050Z,18.75
2022-10-19T09:03:55.287Z,18.05
2022-10-19T09:07:10.739Z,17.20
2022-10-19T09:10:37.522Z,17.60
2022-10-19T09:14:05.835Z,18.85
2022-10-19T09:17:15.296Z,20.15
2022-10-19T09:20:33.702Z,18.98
2022-10-19T09:24:05.819Z,17.30
2022-10-19T09:27:30.272Z,17.90
2022-10-19T09:30:37.824Z,17.30
2022-10-19T09:33:42.012Z,16.65
2022-10-19T09:36:51.750Z,16.05
2022-10-19T09:39:56.203Z,15.40
2022-10-19T09:43:03.531Z,14.67
2022-10-19T09:46:20.476Z,14.73
2022-10-19T09:49:43.871Z,15.85
2022-10-19T09:52:49.185Z,16.15
2022-10-19T09:56:06.778Z,15.03
2022-10-19T09:59:23.389Z,14.17
2022-10-19T10:02:33.955Z,13.80
2022-10-19T10:05:40.667Z,14.18
2022-10-19T10:08:52.983Z,13.48
2022-10-19T10:12:00.896Z,12.73
2022-10-19T10:15:07.200Z,11.40
2022-10-19T10:18:19.165Z,12.00
2022-10-19T10:21:27.401Z,11.88
2022-10-19T10:24:33.317Z,9.60
2022-10-19T10:27:39.443Z,9.20
2022-10-19T10:30:47.207Z,8.50
2022-10-19T10:34:22.505Z,7.80
2022-10-19T10:37:39.397Z,5.70
2022-10-19T10:40:52.548Z,5.22
2022-10-19T10:44:07.370Z,5.70
2022-10-19T10:47:15.798Z,8.70
2022-10-19T10:50:28.976Z,6.68
2022-10-19T10:53:39.434Z,4.88
2022-10-19T10:56:45.606Z,4.32
2022-10-19T11:00:11.340Z,3.70
2022-10-19T11:03:29.528Z,3.17
2022-10-19T11:06:43.659Z,3.42
2022-10-19T11:09:57.981Z,3.10
2022-10-19T11:13:24.148Z,3.55
2022-10-19T11:16:46.058Z,2.90
2022-10-19T11:19:53.860Z,2.70
2022-10-19T11:23:21.729Z,2.88
2022-10-19T11:26:28.503Z,2.90
2022-10-19T11:29:50.786Z,2.70
2022-10-19T11:33:25.649Z,2.53
2022-10-19T11:36:55.070Z,2.53
2022-10-19T11:40:22.242Z,3.00
2022-10-19T11:43:38.816Z,3.90
2022-10-19T11:47:18.444Z,5.45
2022-10-19T11:50:38.613Z,3.53
2022-10-19T11:54:14.452Z,3.23
2022-10-19T11:57:26.207Z,3.30
2022-10-19T12:00:41.340Z,3.40
2022-10-19T12:03:57.481Z,3.28
2022-10-19T12:07:26.838Z,3.43
2022-10-19T12:10:55.662Z,3.80
2022-10-19T12:14:06.117Z,3.45
2022-10-19T12:17:21.762Z,4.18
2022-10-19T12:20:38.361Z,3.28
2022-10-19T12:23:47.097Z,3.50
2022-10-19T12:26:53.282Z,3.60
2022-10-19T12:30:05.650Z,3.65
2022-10-19T12:33:24.115Z,4.03
2022-10-19T12:36:46.480Z,4.30
2022-10-19T12:40:07.005Z,3.63
2022-10-19T12:43:13.571Z,7.20
2022-10-19T12:46:42.956Z,3.53
2022-10-19T12:49:56.626Z,3.60
2022-10-19T12:52:59.876Z,3.58
2022-10-19T12:56:25.090Z,3.80
2022-10-19T12:59:35.083Z,3.90
2022-10-19T13:02:40.716Z,3.58
2022-10-19T13:06:00.149Z,4.15
2022-10-19T13:09:09.537Z,4.47
2022-10-19T13:12:19.657Z,4.43
2022-10-19T13:15:36.290Z,4.37
2022-10-19T13:19:12.112Z,6.65
2022-10-19T13:22:28.957Z,9.05
2022-10-19T13:25:36.096Z,4.88
2022-10-19T13:28:51.922Z,3.90
2022-10-19T13:31:55.502Z,3.67
2022-10-19T13:35:19.854Z,4.28
2022-10-19T13:38:26.581Z,3.97
2022-10-19T13:41:39.185Z,4.30
2022-10-19T13:44:47.344Z,3.27
2022-10-19T13:47:58.365Z,4.43
2022-10-19T13:51:45.993Z,3.63
2022-10-19T13:55:00.253Z,3.55
2022-10-19T13:58:28.370Z,4.43
2022-10-19T14:01:56.827Z,5.20
2022-10-19T14:05:29.340Z,4.97
2022-10-19T14:09:04.796Z,4.60
2022-10-19T14:12:21.374Z,5.43
2022-10-19T14:15:28.092Z,3.63
2022-10-19T14:18:34.995Z,3.33
2022-10-19T14:21:38.606Z,3.60
2022-10-19T14:24:41.862Z,4.18
2022-10-19T14:27:47.606Z,3.55
2022-10-19T14:31:09.411Z,3.58
2022-10-19T14:34:16.317Z,3.50
2022-10-19T14:37:21.133Z,7.57
2022-10-19T14:40:40.475Z,6.88
2022-10-19T14:43:43.901Z,7.50
2022-10-19T14:46:48.814Z,6.90
2022-10-19T14:49:52.992Z,5.40
2022-10-19T14:53:05.656Z,6.23
2022-10-19T14:56:18.827Z,13.15
2022-10-19T14:59:28.438Z,13.13
2022-10-19T15:03:01.503Z,5.88
2022-10-19T15:06:07.265Z,7.40
2022-10-19T15:09:36.762Z,6.50
2022-10-19T15:12:43.519Z,5.93
2022-10-19T15:15:55.190Z,4.30
2022-10-19T15:19:07.097Z,4.70
2022-10-19T15:22:16.358Z,4.20
2022-10-19T15:25:33.932Z,5.40
2022-10-19T15:28:41.558Z,3.63
2022-10-19T15:31:45.338Z,3.60
2022-10-19T15:34:48.745Z,3.45
2022-10-19T15:37:59.317Z,3.27
2022-10-19T15:41:04.965Z,3.30
2022-10-19T15:44:30.560Z,3.55
2022-10-19T15:47:34.542Z,6.30
2022-10-19T15:50:45.762Z,5.95
2022-10-19T15:53:50.989Z,6.87
2022-10-19T15:56:56.491Z,4.43
2022-10-19T16:00:03.483Z,7.10
2022-10-19T16:03:09.222Z,5.38
2022-10-19T16:06:13.179Z,5.95
2022-10-19T16:09:19.560Z,4.73
2022-10-19T16:12:24.415Z,6.47
2022-10-19T16:15:27.822Z,5.85
2022-10-19T16:18:31.535Z,4.28
2022-10-19T16:21:37.042Z,4.70
2022-10-19T16:24:40.600Z,3.80
2022-10-19T16:27:44.001Z,4.63
2022-10-19T16:30:55.718Z,4.13
2022-10-19T16:33:59.141Z,3.80
2022-10-19T16:37:05.820Z,4.15
2022-10-19T16:40:11.448Z,4.00
2022-10-19T16:43:14.913Z,3.80
2022-10-19T16:46:22.636Z,4.63
2022-10-19T16:49:26.240Z,6.38
2022-10-19T16:52:31.927Z,7.60
2022-10-19T16:55:35.447Z,4.63
2022-10-19T16:58:39.867Z,3.30
2022-10-19T17:01:44.614Z,3.30
2022-10-19T17:04:48.087Z,3.53
2022-10-19T17:07:51.807Z,4.57
2022-10-19T17:10:55.722Z,3.73
2022-10-19T17:14:01.948Z,4.53
2022-10-19T17:17:05.601Z,5.38
2022-10-19T17:20:11.356Z,4.75
2022-10-19T17:23:15.399Z,4.63
2022-10-19T17:26:18.803Z,3.67
2022-10-19T17:29:23.094Z,3.90
2022-10-19T17:32:26.814Z,3.95
2022-10-19T17:35:30.414Z,5.30
2022-10-19T17:38:34.297Z,4.53
2022-10-19T17:41:38.188Z,4.20
2022-10-19T17:44:41.583Z,4.43
2022-10-19T17:47:45.151Z,4.25
2022-10-19T17:51:02.954Z,5.70
2022-10-19T17:54:09.238Z,3.70
2022-10-19T17:57:13.245Z,3.80
2022-10-19T18:00:20.197Z,3.90
2022-10-19T18:03:28.636Z,3.78
2022-10-19T18:06:34.749Z,3.75
2022-10-19T18:09:38.454Z,3.67
2022-10-19T18:12:41.915Z,3.70
2022-10-19T18:15:45.516Z,3.53
2022-10-19T18:18:51.875Z,3.90
2022-10-19T18:21:55.303Z,3.47
2022-10-19T18:24:59.110Z,3.70
2022-10-19T18:28:02.724Z,3.93
2022-10-19T18:31:13.264Z,3.23
2022-10-19T18:34:17.744Z,3.58
2022-10-19T18:37:21.698Z,3.45
2022-10-19T18:40:26.165Z,4.00
2022-10-19T18:43:29.690Z,5.23
2022-10-19T18:46:35.245Z,3.90
2022-10-19T18:49:38.952Z,3.90
2022-10-19T18:52:42.571Z,3.45
2022-10-19T18:55:46.431Z,3.60
2022-10-19T18:58:50.405Z,3.43
2022-10-19T19:01:55.257Z,3.60
2022-10-19T19:04:58.985Z,3.80
2022-10-19T19:08:02.786Z,3.10
2022-10-19T19:11:16.788Z,3.22
2022-10-19T19:14:21.622Z,3.07
2022-10-19T19:17:24.918Z,3.00
2022-10-19T19:20:30.856Z,2.95
2022-10-19T19:23:34.515Z,3.15
2022-10-19T19:26:41.514Z,3.13
2022-10-19T19:29:45.160Z,2.70
2022-10-19T19:32:48.685Z,2.80
2022-10-19T19:35:52.381Z,3.00
2022-10-19T19:38:57.575Z,3.83
2022-10-19T19:42:01.187Z,3.47
2022-10-19T19:45:09.163Z,3.50
2022-10-19T19:48:12.826Z,2.80
2022-10-19T19:51:21.275Z,3.65
2022-10-19T19:54:24.946Z,2.80
2022-10-19T19:57:28.923Z,3.00
2022-10-19T20:00:32.909Z,2.70
2022-10-19T20:03:36.571Z,2.10
2022-10-19T20:06:40.916Z,2.50
2022-10-19T20:09:44.895Z,2.33
2022-10-19T20:12:48.817Z,2.50
2022-10-19T20:15:53.849Z,2.40
2022-10-19T20:19:01.936Z,2.70
2022-10-19T20:22:06.358Z,2.60
2022-10-19T20:25:09.958Z,2.40
2022-10-19T20:28:13.772Z,2.58
2022-10-19T20:31:19.347Z,2.70
2022-10-19T20:34:24.115Z,2.40
2022-10-19T20:37:30.238Z,2.30
2022-10-19T20:40:37.548Z,2.30
2022-10-19T20:43:41.180Z,2.28
2022-10-19T20:46:44.607Z,2.90
2022-10-19T20:49:48.706Z,2.67
2022-10-19T20:52:52.118Z,2.65
2022-10-19T20:55:55.456Z,3.00
2022-10-19T20:59:04.657Z,2.80
2022-10-19T21:02:10.350Z,3.13
2022-10-19T21:05:14.156Z,2.87
2022-10-19T21:08:18.789Z,2.63
2022-10-19T21:11:27.247Z,2.85
2022-10-19T21:14:31.036Z,2.70
2022-10-19T21:17:34.452Z,2.80
2022-10-19T21:20:38.111Z,2.30
2022-10-19T21:23:42.132Z,3.05
2022-10-19T21:26:45.771Z,2.95
2022-10-19T21:29:49.234Z,2.60
2022-10-19T21:32:52.566Z,2.67
2022-10-19T21:35:55.823Z,2.73
2022-10-19T21:38:59.423Z,2.50
2022-10-19T21:42:02.738Z,2.30
2022-10-19T21:45:25.544Z,2.70
2022-10-19T21:48:31.379Z,2.70
2022-10-19T21:51:46.720Z,2.30
2022-10-19T21:54:50.045Z,2.40
2022-10-19T21:57:53.480Z,1.95
2022-10-19T22:01:07.609Z,2.22
2022-10-19T22:04:16.820Z,2.23
2022-10-19T22:07:20.162Z,2.10
2022-10-19T22:10:23.696Z,2.30
2022-10-19T22:13:26.959Z,1.83
2022-10-19T22:16:32.321Z,2.00
2022-10-19T22:19:35.684Z,2.10
2022-10-19T22:22:38.994Z,2.60
2022-10-19T22:25:42.343Z,2.53
2022-10-19T22:28:46.094Z,2.17
2022-10-19T22:31:49.489Z,2.30
2022-10-19T22:34:52.785Z,2.30
2022-10-19T22:37:56.076Z,2.13
2022-10-19T22:40:59.395Z,2.28
2022-10-19T22:44:02.871Z,2.00
2022-10-19T22:47:06.246Z,1.90
2022-10-19T22:50:11.865Z,1.83
2022-10-19T22:53:15.329Z,1.73
2022-10-19T22:56:18.653Z,1.80
2022-10-19T22:59:21.994Z,2.17
2022-10-19T23:02:25.283Z,1.85
2022-10-19T23:05:28.597Z,2.00
2022-10-19T23:08:32.071Z,1.90
2022-10-19T23:11:36.223Z,2.20
2022-10-19T23:14:39.538Z,2.30
2022-10-19T23:17:42.782Z,2.08
2022-10-19T23:21:00.813Z,2.10
2022-10-19T23:24:04.361Z,1.77
2022-10-19T23:27:07.733Z,2.00
2022-10-19T23:30:11.747Z,2.10
2022-10-19T23:33:15.456Z,1.85
2022-10-19T23:36:25.307Z,1.83
2022-10-19T23:39:28.718Z,2.20
2022-10-19T23:42:32.041Z,1.90
2022-10-19T23:45:35.346Z,2.10
2022-10-19T23:48:38.978Z,1.60
2022-10-19T23:51:42.342Z,1.97
2022-10-19T23:54:45.638Z,2.00
2022-10-19T23:57:49.054Z,2.05
